createdAt,value
2022-11-24T00:00:19.261Z,9.52
2022-11-24T00:03:07.813Z,9.52
2022-11-24T00:05:57.837Z,9.52
2022-11-24T00:08:47.681Z,9.56
2022-11-24T00:11:38.077Z,9.46
2022-11-24T00:14:26.604Z,9.58
2022-11-24T00:17:15.114Z,9.64
2022-11-24T00:20:04.211Z,9.64
2022-11-24T00:22:54.032Z,9.68
2022-11-24T00:25:42.457Z,9.72
2022-11-24T00:28:31.005Z,9.80
2022-11-24T00:31:21.400Z,9.76
2022-11-24T00:34:12.077Z,9.74
2022-11-24T00:37:00.564Z,9.79
2022-11-24T00:39:50.353Z,9.79
2022-11-24T00:42:38.802Z,9.75
2022-11-24T00:45:27.231Z,9.86
2022-11-24T00:48:15.701Z,9.86
2022-11-24T00:51:05.553Z,9.83
2022-11-24T00:53:54.162Z,9.77
2022-11-24T00:56:43.922Z,9.84
2022-11-24T00:59:32.685Z,9.86
2022-11-24T01:02:21.168Z,9.80
2022-11-24T01:05:09.952Z,9.95
2022-11-24T01:07:58.380Z,9.91
2022-11-24T01:10:46.817Z,9.97
2022-11-24T01:13:36.658Z,10.01
2022-11-24T01:16:26.935Z,10.00
2022-11-24T01:19:15.397Z,10.05
2022-11-24T01:22:03.835Z,10.13
2022-11-24T01:24:52.276Z,10.00
2022-11-24T01:27:40.735Z,10.05
2022-11-24T01:30:30.652Z,9.99
2022-11-24T01:33:19.198Z,9.97
2022-11-24T01:36:07.847Z,10.09
2022-11-24T01:38:56.279Z,10.08
2022-11-24T01:41:44.718Z,9.98
2022-11-24T01:44:33.615Z,10.01
2022-11-24T01:47:30.165Z,10.05
2022-11-24T01:50:18.866Z,10.09
2022-11-24T01:53:07.415Z,10.14
2022-11-24T01:55:55.858Z,10.13
2022-11-24T01:58:46.474Z,10.16
2022-11-24T02:01:35.052Z,10.20
2022-11-24T02:04:28.253Z,10.23
2022-11-24T02:07:16.973Z,10.26
2022-11-24T02:10:08.406Z,10.26
2022-11-24T02:12:58.987Z,9.98
2022-11-24T02:15:47.473Z,10.22
2022-11-24T02:18:35.995Z,10.35
2022-11-24T02:21:25.871Z,10.32
2022-11-24T02:24:19.847Z,10.22
2022-11-24T02:27:11.107Z,10.32
2022-11-24T02:29:59.667Z,10.23
2022-11-24T02:32:48.113Z,10.19
2022-11-24T02:35:36.995Z,10.24
2022-11-24T02:38:32.942Z,9.96
2022-11-24T02:41:22.964Z,10.10
2022-11-24T02:44:15.046Z,10.06
2022-11-24T02:47:04.961Z,10.00
2022-11-24T02:49:53.441Z,10.04
2022-11-24T02:52:41.881Z,10.01
2022-11-24T02:55:30.411Z,9.88
2022-11-24T02:58:18.834Z,10.02
2022-11-24T03:01:08.765Z,9.93
2022-11-24T03:03:57.263Z,9.99
2022-11-24T03:06:45.696Z,9.94
2022-11-24T03:09:34.102Z,9.91
2022-11-24T03:12:22.567Z,9.88
2022-11-24T03:15:11.813Z,9.88
2022-11-24T03:18:01.873Z,9.89
2022-11-24T03:20:50.310Z,9.81
2022-11-24T03:23:38.734Z,9.84
2022-11-24T03:26:27.845Z,9.80
2022-11-24T03:29:16.841Z,9.84
2022-11-24T03:32:05.900Z,9.83
2022-11-24T03:34:55.690Z,9.69
2022-11-24T03:37:44.118Z,9.69
2022-11-24T03:40:32.566Z,9.70
2022-11-24T03:43:21.391Z,9.62
2022-11-24T03:46:10.213Z,9.61
2022-11-24T03:48:58.687Z,9.62
2022-11-24T03:51:48.488Z,9.58
2022-11-24T03:54:36.909Z,9.62
2022-11-24T03:57:25.371Z,9.65
2022-11-24T04:00:14.454Z,9.64
2022-11-24T04:03:05.564Z,9.66
2022-11-24T04:05:54.032Z,9.67
2022-11-24T04:08:43.816Z,9.65
2022-11-24T04:11:49.879Z,9.64
2022-11-24T04:14:38.477Z,9.72
2022-11-24T04:17:26.951Z,9.67
2022-11-24T04:20:16.012Z,9.69
2022-11-24T04:23:04.787Z,9.72
2022-11-24T04:25:54.582Z,9.67
2022-11-24T04:28:43.028Z,9.77
2022-11-24T04:31:31.488Z,9.78
2022-11-24T04:34:19.982Z,9.79
2022-11-24T04:37:08.403Z,9.77
2022-11-24T04:39:56.875Z,9.78
2022-11-24T04:42:53.446Z,9.79
2022-11-24T04:45:41.869Z,9.64
2022-11-24T04:48:30.327Z,9.68
2022-11-24T04:51:18.744Z,9.73
2022-11-24T04:54:07.903Z,9.70
2022-11-24T04:56:56.342Z,9.68
2022-11-24T04:59:46.148Z,9.73
2022-11-24T05:02:34.684Z,9.67
2022-11-24T05:05:23.144Z,9.65
2022-11-24T05:08:11.584Z,9.66
2022-11-24T05:11:05.123Z,9.67
2022-11-24T05:13:53.935Z,9.71
2022-11-24T05:16:43.889Z,9.64
2022-11-24T05:19:32.605Z,9.59
2022-11-24T05:22:21.145Z,9.61
2022-11-24T05:25:10.132Z,9.57
2022-11-24T05:28:00.646Z,9.51
2022-11-24T05:30:49.145Z,9.54
2022-11-24T05:33:38.952Z,9.48
2022-11-24T05:36:59.519Z,9.45
2022-11-24T05:39:47.983Z,9.38
2022-11-24T05:42:47.149Z,9.48
2022-11-24T05:45:36.009Z,9.53
2022-11-24T05:48:24.513Z,9.52
2022-11-24T05:51:14.286Z,9.44
2022-11-24T05:54:02.709Z,9.38
2022-11-24T05:56:51.166Z,9.30
2022-11-24T05:59:39.760Z,9.17
2022-11-24T06:02:28.248Z,9.25
2022-11-24T06:05:16.900Z,9.31
2022-11-24T06:08:06.855Z,9.31
2022-11-24T06:10:55.295Z,9.24
2022-11-24T06:13:44.259Z,9.24
2022-11-24T06:16:33.214Z,9.19
2022-11-24T06:19:21.685Z,9.25
2022-11-24T06:22:10.195Z,9.22
2022-11-24T06:25:00.092Z,9.15
2022-11-24T06:27:48.534Z,9.22
2022-11-24T06:30:36.987Z,9.29
2022-11-24T06:33:25.406Z,9.28
2022-11-24T06:36:14.815Z,9.25
2022-11-24T06:39:03.394Z,9.26
2022-11-24T06:41:53.666Z,9.25
2022-11-24T06:44:42.111Z,9.23
2022-11-24T06:47:30.614Z,9.23
2022-11-24T06:50:19.135Z,9.21
2022-11-24T06:53:07.889Z,9.23
2022-11-24T06:55:58.862Z,9.14
2022-11-24T06:58:49.937Z,9.19
2022-11-24T07:01:38.536Z,9.14
2022-11-24T07:04:27.029Z,9.32
2022-11-24T07:07:15.537Z,9.59
2022-11-24T07:10:04.362Z,9.32
2022-11-24T07:12:52.818Z,9.38
2022-11-24T07:15:42.626Z,9.28
2022-11-24T07:18:31.063Z,9.17
2022-11-24T07:21:20.321Z,9.23
2022-11-24T07:24:09.059Z,9.10
2022-11-24T07:26:57.511Z,8.95
2022-11-24T07:29:45.974Z,9.04
2022-11-24T07:32:35.822Z,8.97
2022-11-24T07:35:24.689Z,8.90
2022-11-24T07:38:13.282Z,8.83
2022-11-24T07:41:02.378Z,8.95
2022-11-24T07:43:51.587Z,8.64
2022-11-24T07:46:40.127Z,8.88
2022-11-24T07:49:30.038Z,8.86
2022-11-24T07:52:18.566Z,8.82
2022-11-24T07:55:08.491Z,8.86
2022-11-24T07:58:00.364Z,8.84
2022-11-24T08:00:48.815Z,8.73
2022-11-24T08:03:37.394Z,8.77
2022-11-24T08:06:36.195Z,8.90
2022-11-24T08:09:28.018Z,8.88
2022-11-24T08:12:17.424Z,8.89
2022-11-24T08:15:10.966Z,8.86
2022-11-24T08:18:02.510Z,8.85
2022-11-24T08:20:51.129Z,8.84
2022-11-24T08:23:41.121Z,8.91
2022-11-24T08:26:29.546Z,8.91
2022-11-24T08:29:17.997Z,9.00
2022-11-24T08:32:06.828Z,9.03
2022-11-24T08:34:59.648Z,9.04
2022-11-24T08:38:01.686Z,9.05
2022-11-24T08:40:54.354Z,9.18
2022-11-24T08:43:43.007Z,9.25
2022-11-24T08:46:31.661Z,9.27
2022-11-24T08:49:21.586Z,9.26
2022-11-24T08:52:10.415Z,9.36
2022-11-24T08:54:58.942Z,9.37
2022-11-24T08:57:48.863Z,9.45
2022-11-24T09:00:37.331Z,9.40
2022-11-24T09:03:25.790Z,9.32
2022-11-24T09:06:14.385Z,9.42
2022-11-24T09:09:03.092Z,9.35
2022-11-24T09:11:51.604Z,9.40
2022-11-24T09:14:43.030Z,9.15
2022-11-24T09:17:32.988Z,9.27
2022-11-24T09:20:21.669Z,9.28
2022-11-24T09:23:10.279Z,9.46
2022-11-24T09:26:04.590Z,9.36
2022-11-24T09:28:55.320Z,9.44
2022-11-24T09:31:45.168Z,9.45
2022-11-24T09:34:33.740Z,9.41
2022-11-24T09:37:22.396Z,9.49
2022-11-24T09:40:13.140Z,9.48
2022-11-24T09:43:04.936Z,9.47
2022-11-24T09:46:05.412Z,9.45
2022-11-24T09:48:58.757Z,9.43
2022-11-24T09:51:49.733Z,9.42
2022-11-24T09:54:38.829Z,9.40
2022-11-24T09:57:31.478Z,9.41
2022-11-24T10:00:24.443Z,9.23
2022-11-24T10:03:21.021Z,9.36
2022-11-24T10:06:20.676Z,9.38
2022-11-24T10:09:16.997Z,9.54
2022-11-24T10:12:31.918Z,9.58
2022-11-24T10:15:25.672Z,9.57
2022-11-24T10:18:28.690Z,9.97
2022-11-24T10:21:59.453Z,10.33
2022-11-24T10:25:04.459Z,10.65
2022-11-24T10:27:57.788Z,10.63
2022-11-24T10:30:46.444Z,10.82
2022-11-24T10:33:35.156Z,11.10
2022-11-24T10:36:27.470Z,11.11
2022-11-24T10:39:21.860Z,11.44
2022-11-24T10:42:15.461Z,11.54
2022-11-24T10:45:09.562Z,11.71
2022-11-24T10:47:58.693Z,11.56
2022-11-24T10:50:47.233Z,11.73
2022-11-24T10:53:36.648Z,11.71
2022-11-24T10:56:26.535Z,11.77
2022-11-24T10:59:33.365Z,11.98
2022-11-24T11:02:37.861Z,12.03
2022-11-24T11:05:41.902Z,12.02
2022-11-24T11:08:31.307Z,11.83
2022-11-24T11:11:23.635Z,11.62
2022-11-24T11:14:13.875Z,11.80
2022-11-24T11:17:03.071Z,11.72
2022-11-24T11:19:56.892Z,11.80
2022-11-24T11:22:50.408Z,12.10
2022-11-24T11:25:41.063Z,12.16
2022-11-24T11:28:31.312Z,12.09
2022-11-24T11:31:22.821Z,11.95
2022-11-24T11:34:23.312Z,11.81
2022-11-24T11:37:15.959Z,11.71
2022-11-24T11:40:09.500Z,11.59
2022-11-24T11:43:03.286Z,11.51
2022-11-24T11:46:00.670Z,11.45
2022-11-24T11:48:50.653Z,11.40
2022-11-24T11:52:05.172Z,11.39
2022-11-24T11:55:09.872Z,11.42
2022-11-24T11:58:06.537Z,11.42
2022-11-24T12:01:01.419Z,11.38
2022-11-24T12:04:02.973Z,11.57
2022-11-24T12:07:06.121Z,11.71
2022-11-24T12:10:01.528Z,11.66
2022-11-24T12:13:16.012Z,11.60
2022-11-24T12:16:12.713Z,11.53
2022-11-24T12:19:15.020Z,11.60
2022-11-24T12:22:08.526Z,11.60
2022-11-24T12:24:59.846Z,11.52
2022-11-24T12:27:56.686Z,11.49
2022-11-24T12:30:51.595Z,11.60
2022-11-24T12:34:04.177Z,11.75
2022-11-24T12:37:08.920Z,11.86
2022-11-24T12:40:05.225Z,11.80
2022-11-24T12:42:59.033Z,11.71
2022-11-24T12:45:54.331Z,11.88
2022-11-24T12:48:52.260Z,11.96
2022-11-24T12:51:43.736Z,12.00
2022-11-24T12:54:38.299Z,12.02
2022-11-24T12:57:29.990Z,12.20
2022-11-24T13:00:22.364Z,12.13
2022-11-24T13:03:19.328Z,12.23
2022-11-24T13:06:13.413Z,12.32
2022-11-24T13:09:09.104Z,12.34
2022-11-24T13:12:12.086Z,12.27
2022-11-24T13:15:00.583Z,12.29
2022-11-24T13:18:05.552Z,12.31
2022-11-24T13:20:58.832Z,12.39
2022-11-24T13:23:57.386Z,12.37
2022-11-24T13:26:48.354Z,12.40
2022-11-24T13:29:38.649Z,12.16
2022-11-24T13:32:59.338Z,12.14
2022-11-24T13:36:23.625Z,12.01
2022-11-24T13:39:20.889Z,11.92
2022-11-24T13:42:09.485Z,11.86
2022-11-24T13:45:00.301Z,11.67
2022-11-24T13:47:48.923Z,11.91
2022-11-24T13:51:16.118Z,11.81
2022-11-24T13:54:04.716Z,11.76
2022-11-24T13:56:53.192Z,11.72
2022-11-24T13:59:41.783Z,11.61
2022-11-24T14:02:34.496Z,11.53
2022-11-24T14:05:25.277Z,11.46
2022-11-24T14:08:19.555Z,11.53
2022-11-24T14:11:17.867Z,11.54
2022-11-24T14:14:16.182Z,11.46
2022-11-24T14:17:19.849Z,11.24
2022-11-24T14:20:18.369Z,11.17
2022-11-24T14:23:10.037Z,11.13
2022-11-24T14:25:58.631Z,11.08
2022-11-24T14:28:47.533Z,10.97
2022-11-24T14:31:36.185Z,11.09
2022-11-24T14:34:26.716Z,10.99
2022-11-24T14:37:16.568Z,11.08
2022-11-24T14:40:05.974Z,11.05
2022-11-24T14:42:54.524Z,10.99
2022-11-24T14:45:49.671Z,11.13
2022-11-24T14:48:40.129Z,10.93
2022-11-24T14:51:30.931Z,11.10
2022-11-24T14:54:22.509Z,11.05
2022-11-24T14:57:25.563Z,10.89
2022-11-24T15:00:20.020Z,10.91
2022-11-24T15:03:20.313Z,10.93
2022-11-24T15:06:17.266Z,10.93
2022-11-24T15:09:05.826Z,10.86
2022-11-24T15:11:56.428Z,10.79
2022-11-24T15:14:51.237Z,10.75
2022-11-24T15:17:46.907Z,10.67
2022-11-24T15:20:37.565Z,10.59
2022-11-24T15:23:27.605Z,10.51
2022-11-24T15:26:31.269Z,10.44
2022-11-24T15:29:22.359Z,10.36
2022-11-24T15:32:13.690Z,10.30
2022-11-24T15:35:02.278Z,10.19
2022-11-24T15:37:50.894Z,10.10
2022-11-24T15:40:39.807Z,9.99
2022-11-24T15:43:31.018Z,9.82
2022-11-24T15:46:20.941Z,9.74
2022-11-24T15:49:09.470Z,9.60
2022-11-24T15:51:58.002Z,9.38
2022-11-24T15:54:46.821Z,9.33
2022-11-24T15:57:35.387Z,9.23
2022-11-24T16:00:24.689Z,9.13
2022-11-24T16:03:45.055Z,8.98
2022-11-24T16:06:24.931Z,8.87
2022-11-24T16:09:16.508Z,8.10
2022-11-24T16:12:05.321Z,8.68
2022-11-24T16:14:53.871Z,8.59
2022-11-24T16:17:42.579Z,8.47
2022-11-24T16:20:34.950Z,8.31
2022-11-24T16:23:23.549Z,8.27
2022-11-24T16:26:12.127Z,7.50
2022-11-24T16:29:00.650Z,8.07
2022-11-24T16:31:50.301Z,7.83
2022-11-24T16:34:38.865Z,7.92
2022-11-24T16:37:28.682Z,7.79
2022-11-24T16:40:18.159Z,7.69
2022-11-24T16:43:06.663Z,7.59
2022-11-24T16:46:01.730Z,7.49
2022-11-24T16:48:51.971Z,7.34
2022-11-24T16:51:42.410Z,7.26
2022-11-24T16:54:32.588Z,7.20
2022-11-24T16:57:21.462Z,7.27
2022-11-24T17:00:11.077Z,7.06
2022-11-24T17:02:59.566Z,7.01
2022-11-24T17:05:57.789Z,6.88
2022-11-24T17:08:47.127Z,6.84
2022-11-24T17:11:37.103Z,6.86
2022-11-24T17:14:25.758Z,6.79
2022-11-24T17:17:14.302Z,6.60
2022-11-24T17:20:02.742Z,6.76
2022-11-24T17:22:51.297Z,6.68
2022-11-24T17:25:39.781Z,6.53
2022-11-24T17:28:29.664Z,6.43
2022-11-24T17:31:22.009Z,6.42
2022-11-24T17:34:12.386Z,6.37
2022-11-24T17:37:00.958Z,5.98
2022-11-24T17:40:05.927Z,6.33
2022-11-24T17:42:59.655Z,6.28
2022-11-24T17:45:55.627Z,6.24
2022-11-24T17:48:44.211Z,6.21
2022-11-24T17:51:32.676Z,5.92
2022-11-24T17:54:45.438Z,6.18
2022-11-24T17:57:30.229Z,6.15
2022-11-24T18:00:19.589Z,6.04
2022-11-24T18:03:09.553Z,5.97
2022-11-24T18:05:58.085Z,5.81
2022-11-24T18:08:48.061Z,5.63
2022-11-24T18:11:36.709Z,5.77
2022-11-24T18:14:25.389Z,5.81
2022-11-24T18:17:13.897Z,5.68
2022-11-24T18:20:03.837Z,5.78
2022-11-24T18:23:05.469Z,5.78
2022-11-24T18:25:54.877Z,5.78
2022-11-24T18:28:44.042Z,5.66
2022-11-24T18:31:34.244Z,5.67
2022-11-24T18:34:24.718Z,5.49
2022-11-24T18:37:16.338Z,5.52
2022-11-24T18:40:05.534Z,5.43
2022-11-24T18:42:54.095Z,5.42
2022-11-24T18:45:42.842Z,5.39
2022-11-24T18:48:31.469Z,5.27
2022-11-24T18:51:20.199Z,5.32
2022-11-24T18:54:10.212Z,5.28
2022-11-24T18:57:03.131Z,5.30
2022-11-24T18:59:52.104Z,5.29
2022-11-24T19:02:40.694Z,5.35
2022-11-24T19:05:29.297Z,5.40
2022-11-24T19:08:17.822Z,5.35
2022-11-24T19:11:07.886Z,5.33
2022-11-24T19:13:57.086Z,5.36
2022-11-24T19:16:47.594Z,5.31
2022-11-24T19:19:36.221Z,5.29
2022-11-24T19:22:24.789Z,5.24
2022-11-24T19:25:13.282Z,5.16
2022-11-24T19:28:03.117Z,5.22
2022-11-24T19:30:51.651Z,5.32
2022-11-24T19:33:40.665Z,5.38
2022-11-24T19:36:29.232Z,5.27
2022-11-24T19:39:17.817Z,5.31
2022-11-24T19:42:06.408Z,5.37
2022-11-24T19:44:56.881Z,5.21
2022-11-24T19:47:45.636Z,5.29
2022-11-24T19:50:34.193Z,5.44
2022-11-24T19:53:22.663Z,5.35
2022-11-24T19:56:12.482Z,5.51
2022-11-24T19:59:00.999Z,5.52
2022-11-24T20:01:50.990Z,5.63
2022-11-24T20:04:42.458Z,5.61
2022-11-24T20:07:30.963Z,5.57
2022-11-24T20:10:19.578Z,5.43
2022-11-24T20:13:08.048Z,5.70
2022-11-24T20:15:56.513Z,5.51
2022-11-24T20:18:48.039Z,5.53
2022-11-24T20:21:37.649Z,5.57
2022-11-24T20:24:26.126Z,5.52
2022-11-24T20:27:14.796Z,5.42
2022-11-24T20:30:03.339Z,5.45
2022-11-24T20:32:51.853Z,5.43
2022-11-24T20:35:41.779Z,5.47
2022-11-24T20:38:30.855Z,5.42
2022-11-24T20:41:21.788Z,5.42
2022-11-24T20:44:13.646Z,5.41
2022-11-24T20:47:03.175Z,5.25
2022-11-24T20:49:51.803Z,4.64
2022-11-24T20:52:41.607Z,5.31
2022-11-24T20:55:31.840Z,5.33
2022-11-24T20:58:20.338Z,5.22
2022-11-24T21:01:10.258Z,5.06
2022-11-24T21:04:00.497Z,5.01
2022-11-24T21:06:48.990Z,4.93
2022-11-24T21:09:38.815Z,4.86
2022-11-24T21:12:27.315Z,4.90
2022-11-24T21:15:16.021Z,4.89
2022-11-24T21:18:05.581Z,4.78
2022-11-24T21:20:54.081Z,4.49
2022-11-24T21:23:42.761Z,4.64
2022-11-24T21:26:32.748Z,4.55
2022-11-24T21:29:23.535Z,4.64
2022-11-24T21:32:12.314Z,4.64
2022-11-24T21:35:00.860Z,4.47
2022-11-24T21:37:49.354Z,4.45
2022-11-24T21:40:37.850Z,4.46
2022-11-24T21:43:28.510Z,4.40
2022-11-24T21:46:17.771Z,4.30
2022-11-24T21:49:06.407Z,4.37
2022-11-24T21:51:55.974Z,4.34
2022-11-24T21:54:44.778Z,4.40
2022-11-24T21:57:33.265Z,4.21
2022-11-24T22:00:23.574Z,4.31
2022-11-24T22:03:12.220Z,4.29
2022-11-24T22:06:01.533Z,4.22
2022-11-24T22:08:50.564Z,4.30
2022-11-24T22:11:39.126Z,4.23
2022-11-24T22:14:27.852Z,4.17
2022-11-24T22:17:17.771Z,4.02
2022-11-24T22:20:07.867Z,3.83
2022-11-24T22:22:56.400Z,3.83
2022-11-24T22:25:44.897Z,3.97
2022-11-24T22:28:33.892Z,3.95
2022-11-24T22:31:23.766Z,4.06
2022-11-24T22:34:13.767Z,3.90
2022-11-24T22:37:02.366Z,3.84
2022-11-24T22:39:51.969Z,3.76
2022-11-24T22:42:40.559Z,3.64
2022-11-24T22:45:29.162Z,3.55
2022-11-24T22:48:17.839Z,3.64
2022-11-24T22:51:09.267Z,3.62
2022-11-24T22:53:59.041Z,3.66
2022-11-24T22:56:47.531Z,3.56
2022-11-24T22:59:35.987Z,3.48
2022-11-24T23:02:24.540Z,3.42
2022-11-24T23:05:16.766Z,3.62
2022-11-24T23:08:09.198Z,3.50
2022-11-24T23:11:02.037Z,3.72
2022-11-24T23:13:53.765Z,3.67
2022-11-24T23:16:42.800Z,2.74
2022-11-24T23:19:31.311Z,3.46
2022-11-24T23:22:19.757Z,3.55
2022-11-24T23:25:10.214Z,3.44
2022-11-24T23:27:58.688Z,3.31
2022-11-24T23:30:47.168Z,2.99
2022-11-24T23:33:36.003Z,3.26
2022-11-24T23:36:24.444Z,3.22
2022-11-24T23:39:14.222Z,3.17
2022-11-24T23:42:04.107Z,3.14
2022-11-24T23:44:52.589Z,3.10
2022-11-24T23:47:41.106Z,3.37
2022-11-24T23:50:29.958Z,3.42
2022-11-24T23:53:18.414Z,3.23
2022-11-24T23:56:07.655Z,3.35
2022-11-24T23:58:57.500Z,3.32
